createdAt,value
2019-02-26T05:41:47.745Z,48.62
2019-02-26T05:46:47.405Z,49.80
2019-02-26T05:51:56.061Z,49.89
2019-02-26T05:57:01.902Z,48.90
2019-02-26T06:02:10.672Z,52.84
2019-02-26T06:07:19.580Z,50.64
2019-02-26T06:12:24.667Z,53.20
2019-02-26T06:17:35.240Z,52.03
2019-02-26T06:22:40.692Z,53.58
2019-02-26T06:27:49.338Z,54.70
2019-02-26T06:33:02.018Z,55.11
2019-02-26T06:38:08.651Z,55.97
2019-02-26T06:43:13.497Z,54.70
2019-02-26T06:48:24.593Z,54.53
2019-02-26T06:53:29.487Z,57.53
2019-02-26T06:58:38.890Z,54.45
2019-02-26T07:03:45.305Z,51.94
2019-02-26T07:08:53.615Z,52.58
2019-02-26T07:14:03.594Z,51.13
2019-02-26T07:19:11.478Z,51.21
2019-02-26T07:24:18.079Z,50.89
2019-02-26T07:29:25.113Z,50.26
2019-02-26T07:34:34.016Z,49.29
2019-02-26T07:39:44.154Z,49.04
2019-02-26T07:44:50.080Z,49.83
2019-02-26T07:50:00.878Z,47.76
2019-02-26T07:55:08.494Z,51.25
2019-02-26T08:00:13.577Z,49.82
2019-02-26T08:05:23.749Z,50.25
2019-02-26T08:10:29.358Z,48.53
2019-02-26T08:15:37.518Z,48.86
2019-02-26T08:20:44.983Z,48.50
2019-02-26T08:25:55.645Z,48.78
2019-02-26T08:31:00.923Z,47.62
2019-02-26T08:36:09.097Z,46.99
2019-02-26T08:41:17.280Z,49.85
2019-02-26T08:46:25.365Z,49.68
2019-02-26T08:51:33.511Z,50.75
2019-02-26T08:56:42.318Z,48.67
2019-02-26T09:01:50.373Z,49.26
2019-02-26T09:07:00.310Z,45.44
2019-02-26T09:12:06.173Z,44.59
2019-02-26T09:17:18.782Z,45.71
2019-02-26T09:22:23.600Z,46.43
2019-02-26T09:27:31.533Z,49.22
2019-02-26T09:32:39.684Z,47.77
2019-02-26T09:37:45.501Z,49.28
2019-02-26T09:42:55.196Z,50.76
2019-02-26T09:48:01.269Z,50.14
2019-02-26T09:53:08.350Z,49.84
2019-02-26T09:58:20.047Z,52.12
2019-02-26T10:03:24.500Z,52.02
2019-02-26T10:08:31.261Z,52.02
2019-02-26T10:13:40.002Z,53.83
2019-02-26T10:18:47.320Z,54.04
2019-02-26T10:23:56.232Z,52.79
2019-02-26T10:29:04.423Z,56.37
2019-02-26T10:34:12.412Z,55.09
2019-02-26T10:39:20.091Z,55.17
2019-02-26T10:44:24.774Z,54.67
2019-02-26T10:49:32.877Z,56.27
2019-02-26T10:54:43.694Z,55.95
2019-02-26T10:59:48.631Z,53.39
2019-02-26T11:04:57.101Z,52.21
2019-02-26T11:10:05.426Z,55.40
2019-02-26T11:15:13.587Z,51.32
2019-02-26T11:20:24.213Z,49.81
2019-02-26T11:25:29.960Z,48.83
2019-02-26T11:30:38.516Z,50.26
2019-02-26T11:35:48.884Z,51.40
2019-02-26T11:40:54.965Z,50.15
2019-02-26T11:46:03.809Z,48.80
2019-02-26T11:51:12.075Z,39.22
2019-02-26T11:56:21.298Z,38.37
2019-02-26T12:01:27.119Z,37.30
2019-02-26T12:06:34.800Z,39.34
2019-02-26T12:11:43.679Z,36.96
2019-02-26T12:16:52.254Z,35.53
2019-02-26T12:22:02.882Z,39.75
2019-02-26T12:27:09.757Z,34.90
2019-02-26T12:32:17.138Z,35.24
2019-02-26T12:37:23.419Z,34.54
2019-02-26T12:42:31.543Z,42.26
2019-02-26T12:47:41.112Z,42.85
2019-02-26T12:52:50.922Z,39.67
2019-02-26T12:57:56.336Z,40.07
2019-02-26T13:03:05.687Z,40.19
2019-02-26T13:08:12.666Z,38.46
2019-02-26T13:13:18.656Z,39.08
2019-02-26T13:18:26.926Z,37.48
2019-02-26T13:23:35.356Z,38.23
2019-02-26T13:28:46.608Z,39.42
2019-02-26T13:33:51.870Z,40.24
2019-02-26T13:39:00.006Z,41.35
2019-02-26T13:44:08.146Z,40.02
2019-02-26T13:49:16.340Z,38.53
2019-02-26T13:54:24.774Z,40.41
2019-02-26T13:59:33.180Z,41.74
2019-02-26T14:04:42.253Z,41.34
2019-02-26T14:09:50.511Z,40.26
2019-02-26T14:14:58.836Z,40.56
2019-02-26T14:20:07.270Z,39.97
2019-02-26T14:25:15.613Z,39.05
2019-02-26T14:30:23.994Z,38.44
2019-02-26T14:35:32.435Z,39.47
2019-02-26T14:40:40.807Z,39.82
2019-02-26T14:45:49.317Z,40.50
2019-02-26T14:50:57.576Z,42.21
2019-02-26T14:56:05.890Z,41.78
2019-02-26T15:01:14.146Z,40.94
2019-02-26T15:06:22.636Z,42.73
2019-02-26T15:11:30.386Z,50.69
2019-02-26T15:16:38.531Z,41.89
2019-02-26T15:21:46.634Z,45.58
2019-02-26T15:26:54.750Z,39.67
2019-02-26T15:32:02.812Z,41.36
2019-02-26T15:37:10.822Z,44.60
2019-02-26T15:42:21.073Z,43.33
2019-02-26T15:47:26.949Z,43.60
2019-02-26T15:52:35.129Z,46.51
2019-02-26T15:57:43.145Z,45.64
2019-02-26T16:02:51.161Z,46.38
2019-02-26T16:07:59.464Z,47.38
2019-02-26T16:13:07.593Z,46.83
2019-02-26T16:18:15.724Z,46.40
2019-02-26T16:23:23.892Z,51.21
2019-02-26T16:28:32.354Z,49.67
2019-02-26T16:33:40.731Z,50.79
2019-02-26T16:38:51.455Z,52.48
2019-02-26T16:43:56.555Z,51.26
2019-02-26T16:49:04.797Z,50.65
2019-02-26T16:54:13.443Z,54.85
2019-02-26T16:59:22.026Z,55.93
2019-02-26T17:04:30.948Z,53.89
2019-02-26T17:09:37.944Z,51.73
2019-02-26T17:14:50.416Z,52.55
2019-02-26T17:19:54.094Z,53.37
2019-02-26T17:25:02.350Z,53.30
2019-02-26T17:30:10.750Z,55.38
2019-02-26T17:35:18.837Z,53.10
2019-02-26T17:40:27.112Z,56.53
2019-02-26T17:45:37.139Z,53.04
2019-02-26T17:50:43.411Z,54.15
2019-02-26T17:55:50.182Z,54.87
2019-02-26T18:00:58.415Z,55.13
2019-02-26T18:06:06.900Z,55.63
2019-02-26T18:11:15.164Z,53.55
2019-02-26T18:16:23.380Z,52.39
2019-02-26T18:21:32.087Z,53.83
2019-02-26T18:26:40.700Z,53.38
2019-02-26T18:31:49.289Z,53.70
2019-02-26T18:36:58.364Z,52.35
2019-02-26T18:42:10.083Z,51.68
2019-02-26T18:47:08.227Z,50.60
2019-02-26T18:52:16.276Z,52.62
2019-02-26T18:57:24.932Z,53.12
2019-02-26T19:02:33.537Z,51.85
2019-02-26T19:07:39.500Z,54.62
2019-02-26T19:12:48.144Z,53.63
2019-02-26T19:17:57.120Z,51.32
2019-02-26T19:23:07.558Z,51.87
2019-02-26T19:28:05.973Z,50.22
2019-02-26T19:33:14.958Z,50.89
2019-02-26T19:38:27.280Z,52.11
2019-02-26T19:43:31.635Z,53.27
2019-02-26T19:48:39.900Z,53.61
2019-02-26T19:53:48.905Z,54.01
2019-02-26T19:58:57.572Z,52.87
2019-02-26T20:04:06.185Z,50.07
2019-02-26T20:09:14.433Z,52.23
2019-02-26T20:14:22.714Z,50.20
2019-02-26T20:19:31.837Z,51.31
2019-02-26T20:24:38.766Z,53.07
2019-02-26T20:29:47.242Z,53.61
2019-02-26T20:34:55.743Z,53.68
2019-02-26T20:40:04.449Z,51.73
2019-02-26T20:45:17.743Z,52.28
2019-02-26T20:50:22.400Z,53.50
2019-02-26T20:55:29.097Z,52.40
2019-02-26T21:00:42.421Z,52.16
2019-02-26T21:05:45.461Z,53.30
2019-02-26T21:10:53.010Z,50.91
2019-02-26T21:16:01.037Z,53.38
2019-02-26T21:21:11.657Z,52.24
2019-02-26T21:26:19.539Z,47.80
2019-02-26T21:31:24.750Z,52.47
2019-02-26T21:36:33.381Z,53.55
2019-02-26T21:41:41.658Z,51.23
2019-02-26T21:46:50.093Z,52.35
2019-02-26T21:51:58.370Z,51.18
2019-02-26T21:57:06.717Z,52.64
2019-02-26T22:02:18.644Z,54.01
2019-02-26T22:07:23.220Z,58.08
2019-02-26T22:12:31.317Z,56.92
2019-02-26T22:17:39.434Z,58.57
2019-02-26T22:22:48.438Z,54.01
2019-02-26T22:27:56.333Z,53.20
2019-02-26T22:33:07.764Z,52.46
2019-02-26T22:38:12.642Z,51.93
2019-02-26T22:43:20.142Z,52.78
2019-02-26T22:48:28.277Z,53.83
2019-02-26T22:53:37.097Z,51.18
2019-02-26T22:58:44.232Z,51.24
2019-02-26T23:03:53.492Z,49.99
2019-02-26T23:09:01.553Z,48.89
2019-02-26T23:14:09.657Z,60.14
2019-02-26T23:19:17.807Z,47.74
2019-02-26T23:24:27.934Z,48.18
2019-02-26T23:29:33.494Z,45.06
2019-02-26T23:34:42.242Z,44.95
2019-02-26T23:39:51.035Z,47.49
2019-02-26T23:44:57.158Z,49.12
2019-02-26T23:50:05.754Z,53.37
2019-02-26T23:55:14.058Z,50.65
